KINK

Winkler County Airport

Wink, Texas, USA
METAR KINK 172053Z AUTO 32008KT 10SM CLR 19/02 A3012 RMK AO2 SLP177 T01940017 56021
Observed Flight Rules
Feb-17 @ 20:53 UTC (39 minutes ago) Visual Flight Rules
Wind Visibility Clouds
320° at 8 knots 10 miles
  • Clear skies
Temperatures Readings
Current 19°C / 66°F
Dewpoint 2°C / 36°F
Humidity 32%
Altimeter 30.12" Hg
Pressure 1017.7 hPa
Elevation 855
METAR KINK 172053Z AUTO 32008KT 10SM CLR 19/02 A3012 RMK AO2 SLP177 T01940017 56021
Observed Flight Rules
Feb-17 @ 20:53 UTC
(39 minutes ago)
VFR
Wind Visibility
320° at 8 knots 10 miles
Clouds
  • Clear skies
Temperature Dewpoint
19°C / 66°F 2°C / 36°F
Humidity Altimeter Pressure
32% 30.12" Hg 1017.7 hPa